sensor_id;sensor_type;location;lat;lon;timestamp;noise_LAeq;noise_LA_min;noise_LA_max;noise_LA01;noise_LA95
67304;Laerm;57660;51.436;5.978;2023-04-06T00:00:13;31.01;30.03;32.03;;
67304;Laerm;57660;51.436;5.978;2023-04-06T00:00:24;41.49;29.93;56.26;;
67304;Laerm;57660;51.436;5.978;2023-04-06T00:00:52;31.09;29.96;32.38;;
67304;Laerm;57660;51.436;5.978;2023-04-06T00:01:12;31.10;29.90;35.39;;
67304;Laerm;57660;51.436;5.978;2023-04-06T00:01:22;34.06;30.32;48.02;;
67304;Laerm;57660;51.436;5.978;2023-04-06T00:01:44;33.32;31.08;36.53;;
67304;Laerm;57660;51.436;5.978;2023-04-06T00:01:55;33.26;30.74;35.50;;
67304;Laerm;57660;51.436;5.978;2023-04-06T00:02:11;32.57;30.58;35.02;;
67304;Laerm;57660;51.436;5.978;2023-04-06T00:02:22;32.02;30.02;34.32;;
67304;Laerm;57660;51.436;5.978;2023-04-06T00:02:40;31.40;29.93;33.15;;
67304;Laerm;57660;51.436;5.978;2023-04-06T00:02:50;31.05;29.67;32.59;;
67304;Laerm;57660;51.436;5.978;2023-04-06T00:03:07;30.90;29.95;31.95;;
67304;Laerm;57660;51.436;5.978;2023-04-06T00:03:18;30.84;29.75;32.17;;
67304;Laerm;57660;51.436;5.978;2023-04-06T00:03:49;31.03;29.82;31.91;;
67304;Laerm;57660;51.436;5.978;2023-04-06T00:04:08;30.94;29.64;32.22;;
67304;Laerm;57660;51.436;5.978;2023-04-06T00:04:18;31.00;29.60;41.97;;
67304;Laerm;57660;51.436;5.978;2023-04-06T00:04:30;30.96;29.72;32.19;;
67304;Laerm;57660;51.436;5.978;2023-04-06T00:04:40;30.86;29.66;32.38;;
67304;Laerm;57660;51.436;5.978;2023-04-06T00:04:53;30.88;29.80;32.19;;
67304;Laerm;57660;51.436;5.978;2023-04-06T00:05:04;30.84;29.42;32.09;;
67304;Laerm;57660;51.436;5.978;2023-04-06T00:05:20;30.82;29.78;31.90;;
67304;Laerm;57660;51.436;5.978;2023-04-06T00:05:31;30.81;29.73;32.08;;
67304;Laerm;57660;51.436;5.978;2023-04-06T00:05:42;30.85;29.78;32.05;;
67304;Laerm;57660;51.436;5.978;2023-04-06T00:05:52;30.96;29.85;32.71;;
67304;Laerm;57660;51.436;5.978;2023-04-06T00:06:10;31.65;29.97;33.73;;
67304;Laerm;57660;51.436;5.978;2023-04-06T00:06:20;33.52;31.09;36.84;;
67304;Laerm;57660;51.436;5.978;2023-04-06T00:06:40;33.87;31.14;37.35;;
67304;Laerm;57660;51.436;5.978;2023-04-06T00:06:51;32.73;30.14;38.38;;
67304;Laerm;57660;51.436;5.978;2023-04-06T00:07:04;31.47;29.99;33.30;;
67304;Laerm;57660;51.436;5.978;2023-04-06T00:07:14;31.28;29.86;33.25;;
67304;Laerm;57660;51.436;5.978;2023-04-06T00:07:31;31.22;29.95;35.81;;
67304;Laerm;57660;51.436;5.978;2023-04-06T00:07:43;31.18;29.80;32.32;;
67304;Laerm;57660;51.436;5.978;2023-04-06T00:08:13;31.17;29.85;33.29;;
67304;Laerm;57660;51.436;5.978;2023-04-06T00:08:26;31.56;30.04;45.69;;
67304;Laerm;57660;51.436;5.978;2023-04-06T00:08:36;31.04;30.01;32.96;;
67304;Laerm;57660;51.436;5.978;2023-04-06T00:08:55;31.27;29.86;33.22;;
67304;Laerm;57660;51.436;5.978;2023-04-06T00:09:06;31.05;29.99;32.15;;
67304;Laerm;57660;51.436;5.978;2023-04-06T00:09:25;31.10;29.72;32.52;;
67304;Laerm;57660;51.436;5.978;2023-04-06T00:09:38;31.09;29.87;32.19;;
67304;Laerm;57660;51.436;5.978;2023-04-06T00:09:54;31.08;30.12;32.45;;
67304;Laerm;57660;51.436;5.978;2023-04-06T00:10:05;31.20;30.16;32.35;;
67304;Laerm;57660;51.436;5.978;2023-04-06T00:10:36;31.13;30.03;32.20;;
67304;Laerm;57660;51.436;5.978;2023-04-06T00:10:55;31.15;29.74;32.33;;
67304;Laerm;57660;51.436;5.978;2023-04-06T00:11:05;31.19;29.68;32.43;;
67304;Laerm;57660;51.436;5.978;2023-04-06T00:11:15;31.22;29.84;32.46;;
67304;Laerm;57660;51.436;5.978;2023-04-06T00:11:41;31.15;29.76;32.34;;
67304;Laerm;57660;51.436;5.978;2023-04-06T00:11:52;31.20;30.10;32.20;;
67304;Laerm;57660;51.436;5.978;2023-04-06T00:12:19;31.31;29.94;33.81;;
67304;Laerm;57660;51.436;5.978;2023-04-06T00:12:35;31.09;29.87;32.12;;
67304;Laerm;57660;51.436;5.978;2023-04-06T00:12:46;31.14;29.97;32.46;;
67304;Laerm;57660;51.436;5.978;2023-04-06T00:12:57;31.34;30.16;32.36;;
67304;Laerm;57660;51.436;5.978;2023-04-06T00:13:17;31.19;29.91;32.60;;
67304;Laerm;57660;51.436;5.978;2023-04-06T00:13:45;31.21;30.01;32.57;;
67304;Laerm;57660;51.436;5.978;2023-04-06T00:14:02;31.08;29.68;32.93;;
67304;Laerm;57660;51.436;5.978;2023-04-06T00:14:12;31.30;29.85;34.20;;
67304;Laerm;57660;51.436;5.978;2023-04-06T00:14:23;31.27;30.04;34.10;;
67304;Laerm;57660;51.436;5.978;2023-04-06T00:14:34;31.29;30.14;34.13;;
67304;Laerm;57660;51.436;5.978;2023-04-06T00:14:53;31.25;30.06;33.04;;
67304;Laerm;57660;51.436;5.978;2023-04-06T00:15:06;31.24;29.93;33.32;;
67304;Laerm;57660;51.436;5.978;2023-04-06T00:15:23;31.33;30.22;33.43;;
67304;Laerm;57660;51.436;5.978;2023-04-06T00:15:33;31.26;30.05;33.06;;
67304;Laerm;57660;51.436;5.978;2023-04-06T00:15:53;31.43;30.26;35.05;;
67304;Laerm;57660;51.436;5.978;2023-04-06T00:16:03;31.36;29.84;35.36;;
67304;Laerm;57660;51.436;5.978;2023-04-06T00:16:23;31.39;29.85;34.24;;
67304;Laerm;57660;51.436;5.978;2023-04-06T00:16:34;31.34;30.29;32.49;;
67304;Laerm;57660;51.436;5.978;2023-04-06T00:16:55;31.45;30.10;33.17;;
67304;Laerm;57660;51.436;5.978;2023-04-06T00:17:05;31.24;30.04;34.80;;
67304;Laerm;57660;51.436;5.978;2023-04-06T00:17:21;31.33;30.02;35.04;;
67304;Laerm;57660;51.436;5.978;2023-04-06T00:17:32;31.34;30.14;35.49;;
67304;Laerm;57660;51.436;5.978;2023-04-06T00:17:42;31.37;30.07;34.54;;
67304;Laerm;57660;51.436;5.978;2023-04-06T00:18:06;31.31;30.04;35.20;;
67304;Laerm;57660;51.436;5.978;2023-04-06T00:18:17;31.20;30.18;32.42;;
67304;Laerm;57660;51.436;5.978;2023-04-06T00:18:30;31.33;30.31;32.52;;
67304;Laerm;57660;51.436;5.978;2023-04-06T00:18:40;31.14;30.08;32.52;;
67304;Laerm;57660;51.436;5.978;2023-04-06T00:18:53;31.25;30.25;32.27;;
67304;Laerm;57660;51.436;5.978;2023-04-06T00:19:03;31.19;29.96;32.04;;
67304;Laerm;57660;51.436;5.978;2023-04-06T00:19:22;31.21;30.01;32.23;;
67304;Laerm;57660;51.436;5.978;2023-04-06T00:19:33;31.18;30.14;32.30;;
67304;Laerm;57660;51.436;5.978;2023-04-06T00:19:43;31.15;29.74;32.21;;
67304;Laerm;57660;51.436;5.978;2023-04-06T00:20:04;31.18;29.87;40.75;;
67304;Laerm;57660;51.436;5.978;2023-04-06T00:20:15;31.09;30.03;32.37;;
67304;Laerm;57660;51.436;5.978;2023-04-06T00:20:34;31.07;29.69;32.10;;
67304;Laerm;57660;51.436;5.978;2023-04-06T00:20:54;31.12;29.80;32.03;;
67304;Laerm;57660;51.436;5.978;2023-04-06T00:21:06;31.02;29.84;32.14;;
67304;Laerm;57660;51.436;5.978;2023-04-06T00:21:17;30.93;29.78;32.14;;
67304;Laerm;57660;51.436;5.978;2023-04-06T00:21:36;30.95;29.80;32.61;;
67304;Laerm;57660;51.436;5.978;2023-04-06T00:21:53;30.85;29.79;31.94;;
67304;Laerm;57660;51.436;5.978;2023-04-06T00:22:08;31.02;29.70;32.91;;
67304;Laerm;57660;51.436;5.978;2023-04-06T00:22:18;31.01;30.08;32.04;;
67304;Laerm;57660;51.436;5.978;2023-04-06T00:22:32;31.05;30.07;32.23;;
67304;Laerm;57660;51.436;5.978;2023-04-06T00:22:48;31.22;30.24;32.39;;
67304;Laerm;57660;51.436;5.978;2023-04-06T00:22:58;31.13;30.02;32.06;;
67304;Laerm;57660;51.436;5.978;2023-04-06T00:23:09;31.16;30.07;33.10;;
67304;Laerm;57660;51.436;5.978;2023-04-06T00:23:22;31.11;30.08;32.84;;
67304;Laerm;57660;51.436;5.978;2023-04-06T00:23:32;31.52;30.02;36.15;;
67304;Laerm;57660;51.436;5.978;2023-04-06T00:23:53;31.19;30.12;32.27;;
67304;Laerm;57660;51.436;5.978;2023-04-06T00:24:03;31.58;30.20;33.42;;
67304;Laerm;57660;51.436;5.978;2023-04-06T00:24:22;31.74;30.36;32.96;;
67304;Laerm;57660;51.436;5.978;2023-04-06T00:24:33;31.97;30.38;34.89;;
67304;Laerm;57660;51.436;5.978;2023-04-06T00:24:46;31.95;30.38;33.83;;
67304;Laerm;57660;51.436;5.978;2023-04-06T00:24:59;31.83;30.30;33.78;;
67304;Laerm;57660;51.436;5.978;2023-04-06T00:25:26;31.43;30.06;32.76;;
67304;Laerm;57660;51.436;5.978;2023-04-06T00:25:36;31.34;29.77;37.12;;
67304;Laerm;57660;51.436;5.978;2023-04-06T00:25:53;31.05;29.82;32.15;;
67304;Laerm;57660;51.436;5.978;2023-04-06T00:26:09;31.02;29.70;32.96;;
67304;Laerm;57660;51.436;5.978;2023-04-06T00:26:23;31.13;29.70;32.88;;
67304;Laerm;57660;51.436;5.978;2023-04-06T00:26:33;31.17;29.98;33.04;;
67304;Laerm;57660;51.436;5.978;2023-04-06T00:26:49;31.28;29.98;39.58;;
67304;Laerm;57660;51.436;5.978;2023-04-06T00:27:00;31.32;29.70;43.93;;
67304;Laerm;57660;51.436;5.978;2023-04-06T00:27:11;31.25;30.10;39.01;;
67304;Laerm;57660;51.436;5.978;2023-04-06T00:27:30;31.44;30.22;38.28;;
67304;Laerm;57660;51.436;5.978;2023-04-06T00:27:43;31.50;29.95;44.39;;
67304;Laerm;57660;51.436;5.978;2023-04-06T00:27:53;31.24;29.81;32.49;;
67304;Laerm;57660;51.436;5.978;2023-04-06T00:28:07;31.15;30.25;32.16;;
67304;Laerm;57660;51.436;5.978;2023-04-06T00:28:20;31.55;30.16;33.90;;
67304;Laerm;57660;51.436;5.978;2023-04-06T00:28:37;31.25;29.97;32.56;;
67304;Laerm;57660;51.436;5.978;2023-04-06T00:28:50;31.43;30.08;33.08;;
67304;Laerm;57660;51.436;5.978;2023-04-06T00:29:04;31.19;30.14;32.24;;
67304;Laerm;57660;51.436;5.978;2023-04-06T00:29:15;31.32;30.04;32.25;;
67304;Laerm;57660;51.436;5.978;2023-04-06T00:29:25;31.13;30.09;32.44;;
67304;Laerm;57660;51.436;5.978;2023-04-06T00:29:35;31.20;30.11;32.34;;
67304;Laerm;57660;51.436;5.978;2023-04-06T00:29:49;31.25;30.22;32.41;;
67304;Laerm;57660;51.436;5.978;2023-04-06T00:30:00;31.20;30.04;32.28;;
67304;Laerm;57660;51.436;5.978;2023-04-06T00:30:10;31.24;29.64;32.26;;
67304;Laerm;57660;51.436;5.978;2023-04-06T00:30:23;31.48;30.27;32.81;;
67304;Laerm;57660;51.436;5.978;2023-04-06T00:30:33;32.63;30.86;34.48;;
67304;Laerm;57660;51.436;5.978;2023-04-06T00:30:49;32.69;30.80;35.32;;
67304;Laerm;57660;51.436;5.978;2023-04-06T00:31:02;31.40;29.85;33.86;;
67304;Laerm;57660;51.436;5.978;2023-04-06T00:31:20;44.23;29.98;56.79;;
67304;Laerm;57660;51.436;5.978;2023-04-06T00:31:33;31.22;29.97;33.97;;
67304;Laerm;57660;51.436;5.978;2023-04-06T00:31:47;31.21;29.28;32.39;;
67304;Laerm;57660;51.436;5.978;2023-04-06T00:31:59;31.25;30.11;32.61;;
67304;Laerm;57660;51.436;5.978;2023-04-06T00:32:10;31.55;30.22;33.00;;
67304;Laerm;57660;51.436;5.978;2023-04-06T00:32:29;31.36;30.15;32.45;;
67304;Laerm;57660;51.436;5.978;2023-04-06T00:32:40;31.33;30.06;37.15;;
67304;Laerm;57660;51.436;5.978;2023-04-06T00:32:53;31.08;30.11;32.16;;
67304;Laerm;57660;51.436;5.978;2023-04-06T00:33:09;31.59;30.19;33.76;;
67304;Laerm;57660;51.436;5.978;2023-04-06T00:33:22;36.98;31.90;43.78;;
67304;Laerm;57660;51.436;5.978;2023-04-06T00:33:32;47.98;34.13;58.40;;
67304;Laerm;57660;51.436;5.978;2023-04-06T00:33:59;38.90;33.61;47.29;;
67304;Laerm;57660;51.436;5.978;2023-04-06T00:34:19;39.26;30.89;48.59;;
67304;Laerm;57660;51.436;5.978;2023-04-06T00:34:29;31.82;30.05;36.78;;
67304;Laerm;57660;51.436;5.978;2023-04-06T00:34:47;32.37;30.17;40.43;;
67304;Laerm;57660;51.436;5.978;2023-04-06T00:35:03;32.77;30.26;45.93;;
67304;Laerm;57660;51.436;5.978;2023-04-06T00:35:14;31.23;30.03;32.52;;
67304;Laerm;57660;51.436;5.978;2023-04-06T00:35:39;31.20;30.03;32.27;;
67304;Laerm;57660;51.436;5.978;2023-04-06T00:35:52;30.98;29.68;32.23;;
67304;Laerm;57660;51.436;5.978;2023-04-06T00:36:11;31.13;29.94;32.23;;
67304;Laerm;57660;51.436;5.978;2023-04-06T00:36:22;32.12;30.16;34.48;;
67304;Laerm;57660;51.436;5.978;2023-04-06T00:36:32;32.59;31.06;34.58;;
67304;Laerm;57660;51.436;5.978;2023-04-06T00:37:16;40.60;33.94;45.23;;
67304;Laerm;57660;51.436;5.978;2023-04-06T00:37:26;48.41;38.68;55.72;;
67304;Laerm;57660;51.436;5.978;2023-04-06T00:37:49;35.33;33.01;39.77;;
67304;Laerm;57660;51.436;5.978;2023-04-06T00:38:02;34.73;30.86;39.96;;
67304;Laerm;57660;51.436;5.978;2023-04-06T00:38:12;31.41;30.26;32.62;;
67304;Laerm;57660;51.436;5.978;2023-04-06T00:38:31;31.33;29.85;34.00;;
67304;Laerm;57660;51.436;5.978;2023-04-06T00:38:41;31.23;29.95;34.18;;
67304;Laerm;57660;51.436;5.978;2023-04-06T00:39:00;31.08;29.72;32.24;;
67304;Laerm;57660;51.436;5.978;2023-04-06T00:39:18;31.06;29.79;32.58;;
67304;Laerm;57660;51.436;5.978;2023-04-06T00:39:31;31.06;29.91;32.45;;
67304;Laerm;57660;51.436;5.978;2023-04-06T00:39:57;31.13;29.61;32.15;;
67304;Laerm;57660;51.436;5.978;2023-04-06T00:40:07;31.27;29.84;45.32;;
67304;Laerm;57660;51.436;5.978;2023-04-06T00:40:32;31.12;30.08;32.48;;
67304;Laerm;57660;51.436;5.978;2023-04-06T00:40:44;31.08;29.75;36.73;;
67304;Laerm;57660;51.436;5.978;2023-04-06T00:40:57;31.04;30.15;32.24;;
67304;Laerm;57660;51.436;5.978;2023-04-06T00:42:07;31.10;29.83;34.93;;
67304;Laerm;57660;51.436;5.978;2023-04-06T00:43:11;30.97;29.82;32.96;;
67304;Laerm;57660;51.436;5.978;2023-04-06T00:44:01;30.99;29.76;33.87;;
67304;Laerm;57660;51.436;5.978;2023-04-06T00:44:20;31.17;30.08;32.42;;
67304;Laerm;57660;51.436;5.978;2023-04-06T00:44:43;31.36;30.01;36.10;;
67304;Laerm;57660;51.436;5.978;2023-04-06T00:45:23;31.18;29.98;34.95;;
67304;Laerm;57660;51.436;5.978;2023-04-06T00:45:43;31.14;29.86;33.19;;
67304;Laerm;57660;51.436;5.978;2023-04-06T00:46:03;31.38;29.92;42.44;;
67304;Laerm;57660;51.436;5.978;2023-04-06T00:46:16;31.21;29.83;34.65;;
67304;Laerm;57660;51.436;5.978;2023-04-06T00:46:35;31.08;29.80;32.90;;
67304;Laerm;57660;51.436;5.978;2023-04-06T00:46:52;31.04;29.83;33.13;;
67304;Laerm;57660;51.436;5.978;2023-04-06T00:47:03;31.14;29.81;34.18;;
67304;Laerm;57660;51.436;5.978;2023-04-06T00:47:20;31.21;29.97;32.59;;
67304;Laerm;57660;51.436;5.978;2023-04-06T00:47:30;31.14;30.09;32.51;;
67304;Laerm;57660;51.436;5.978;2023-04-06T00:47:43;31.06;30.00;32.65;;
67304;Laerm;57660;51.436;5.978;2023-04-06T00:48:05;31.17;29.96;33.18;;
67304;Laerm;57660;51.436;5.978;2023-04-06T00:48:19;31.13;29.84;36.21;;
67304;Laerm;57660;51.436;5.978;2023-04-06T00:48:43;31.06;29.74;32.23;;
67304;Laerm;57660;51.436;5.978;2023-04-06T00:49:02;31.03;29.66;32.71;;
67304;Laerm;57660;51.436;5.978;2023-04-06T00:49:15;31.01;29.86;32.09;;
67304;Laerm;57660;51.436;5.978;2023-04-06T00:49:37;31.02;29.91;34.96;;
67304;Laerm;57660;51.436;5.978;2023-04-06T00:50:00;30.95;29.72;32.66;;
67304;Laerm;57660;51.436;5.978;2023-04-06T00:50:19;31.37;29.75;48.56;;
67304;Laerm;57660;51.436;5.978;2023-04-06T00:50:38;30.84;29.65;33.59;;
67304;Laerm;57660;51.436;5.978;2023-04-06T00:50:58;31.15;29.45;42.53;;
67304;Laerm;57660;51.436;5.978;2023-04-06T00:51:27;30.98;29.84;34.82;;
67304;Laerm;57660;51.436;5.978;2023-04-06T00:52:35;31.05;29.64;41.30;;
67304;Laerm;57660;51.436;5.978;2023-04-06T00:52:46;30.98;29.71;32.23;;
67304;Laerm;57660;51.436;5.978;2023-04-06T00:53:05;30.94;29.56;32.16;;
67304;Laerm;57660;51.436;5.978;2023-04-06T00:53:24;31.01;29.88;32.46;;
67304;Laerm;57660;51.436;5.978;2023-04-06T00:53:35;31.02;29.77;31.99;;
67304;Laerm;57660;51.436;5.978;2023-04-06T00:53:54;30.94;29.78;32.06;;
67304;Laerm;57660;51.436;5.978;2023-04-06T00:54:21;30.88;29.67;32.06;;
67304;Laerm;57660;51.436;5.978;2023-04-06T00:54:40;30.98;29.86;32.07;;
67304;Laerm;57660;51.436;5.978;2023-04-06T00:54:56;30.97;29.87;32.08;;
67304;Laerm;57660;51.436;5.978;2023-04-06T00:55:24;30.92;29.52;32.20;;
67304;Laerm;57660;51.436;5.978;2023-04-06T00:55:44;30.88;29.49;32.12;;
67304;Laerm;57660;51.436;5.978;2023-04-06T00:55:54;30.94;29.62;31.90;;
67304;Laerm;57660;51.436;5.978;2023-04-06T00:56:04;31.10;29.91;35.07;;
67304;Laerm;57660;51.436;5.978;2023-04-06T00:56:24;30.99;29.88;32.03;;
67304;Laerm;57660;51.436;5.978;2023-04-06T00:56:45;31.02;29.75;33.22;;
67304;Laerm;57660;51.436;5.978;2023-04-06T00:57:47;31.07;29.53;38.83;;
67304;Laerm;57660;51.436;5.978;2023-04-06T00:58:07;31.08;29.81;32.14;;
67304;Laerm;57660;51.436;5.978;2023-04-06T00:59:58;31.16;29.89;32.58;;
67304;Laerm;57660;51.436;5.978;2023-04-06T01:00:26;42.29;29.93;58.20;;
67304;Laerm;57660;51.436;5.978;2023-04-06T01:00:42;39.52;29.93;57.20;;
67304;Laerm;57660;51.436;5.978;2023-04-06T01:00:53;31.39;29.99;32.86;;
67304;Laerm;57660;51.436;5.978;2023-04-06T01:01:12;31.69;30.09;35.82;;
67304;Laerm;57660;51.436;5.978;2023-04-06T01:01:38;31.85;30.20;33.95;;
67304;Laerm;57660;51.436;5.978;2023-04-06T01:01:48;31.72;30.32;33.35;;
67304;Laerm;57660;51.436;5.978;2023-04-06T01:02:01;32.07;30.55;34.08;;
67304;Laerm;57660;51.436;5.978;2023-04-06T01:02:18;31.44;30.18;34.90;;
67304;Laerm;57660;51.436;5.978;2023-04-06T01:02:40;31.65;30.38;33.05;;
67304;Laerm;57660;51.436;5.978;2023-04-06T01:03:09;31.60;29.93;33.26;;
67304;Laerm;57660;51.436;5.978;2023-04-06T01:03:37;31.64;30.30;32.98;;
67304;Laerm;57660;51.436;5.978;2023-04-06T01:03:57;31.39;30.13;32.98;;
67304;Laerm;57660;51.436;5.978;2023-04-06T01:04:07;31.61;30.14;33.42;;
67304;Laerm;57660;51.436;5.978;2023-04-06T01:04:26;31.48;30.23;32.68;;
67304;Laerm;57660;51.436;5.978;2023-04-06T01:04:37;31.49;30.23;32.91;;
67304;Laerm;57660;51.436;5.978;2023-04-06T01:05:00;31.27;29.72;32.37;;
67304;Laerm;57660;51.436;5.978;2023-04-06T01:05:10;31.30;29.89;32.76;;
67304;Laerm;57660;51.436;5.978;2023-04-06T01:05:33;31.21;30.03;32.68;;
67304;Laerm;57660;51.436;5.978;2023-04-06T01:05:44;31.32;29.98;33.36;;
67304;Laerm;57660;51.436;5.978;2023-04-06T01:06:01;31.28;30.13;32.76;;
67304;Laerm;57660;51.436;5.978;2023-04-06T01:06:23;31.30;29.92;32.52;;
67304;Laerm;57660;51.436;5.978;2023-04-06T01:06:45;31.23;30.03;32.76;;
67304;Laerm;57660;51.436;5.978;2023-04-06T01:06:56;31.22;29.99;33.01;;
67304;Laerm;57660;51.436;5.978;2023-04-06T01:07:18;31.21;29.88;32.33;;
67304;Laerm;57660;51.436;5.978;2023-04-06T01:07:37;31.40;29.96;39.39;;
67304;Laerm;57660;51.436;5.978;2023-04-06T01:08:00;31.36;30.23;33.18;;
67304;Laerm;57660;51.436;5.978;2023-04-06T01:08:11;31.48;30.10;33.47;;
67304;Laerm;57660;51.436;5.978;2023-04-06T01:08:33;31.45;30.21;32.94;;
67304;Laerm;57660;51.436;5.978;2023-04-06T01:10:05;31.37;29.93;33.65;;
67304;Laerm;57660;51.436;5.978;2023-04-06T01:10:34;31.24;29.84;33.09;;
67304;Laerm;57660;51.436;5.978;2023-04-06T01:11:00;31.26;29.71;32.84;;
67304;Laerm;57660;51.436;5.978;2023-04-06T01:11:42;31.19;29.74;32.57;;
67304;Laerm;57660;51.436;5.978;2023-04-06T01:12:00;31.23;30.03;32.54;;
67304;Laerm;57660;51.436;5.978;2023-04-06T01:12:29;31.17;29.79;32.49;;
67304;Laerm;57660;51.436;5.978;2023-04-06T01:12:51;31.37;30.13;32.89;;
67304;Laerm;57660;51.436;5.978;2023-04-06T01:13:13;44.59;30.95;49.69;;
67304;Laerm;57660;51.436;5.978;2023-04-06T01:13:23;41.07;38.67;43.12;;
67304;Laerm;57660;51.436;5.978;2023-04-06T01:13:36;41.34;39.42;43.60;;
67304;Laerm;57660;51.436;5.978;2023-04-06T01:14:07;72.88;41.40;80.13;;
67304;Laerm;57660;51.436;5.978;2023-04-06T01:14:35;70.43;39.94;77.30;;
67304;Laerm;57660;51.436;5.978;2023-04-06T01:15:01;43.44;38.60;47.79;;
67304;Laerm;57660;51.436;5.978;2023-04-06T01:15:11;70.81;44.55;76.41;;
67304;Laerm;57660;51.436;5.978;2023-04-06T01:16:24;37.16;32.51;45.87;;
67304;Laerm;57660;51.436;5.978;2023-04-06T01:16:53;32.88;30.41;35.81;;
67304;Laerm;57660;51.436;5.978;2023-04-06T01:17:04;31.87;30.22;35.23;;
67304;Laerm;57660;51.436;5.978;2023-04-06T01:17:21;32.09;30.49;34.64;;
67304;Laerm;57660;51.436;5.978;2023-04-06T01:17:40;31.53;30.07;37.07;;
67304;Laerm;57660;51.436;5.978;2023-04-06T01:17:53;31.10;29.81;32.18;;
67304;Laerm;57660;51.436;5.978;2023-04-06T01:18:15;31.23;30.16;32.61;;
67304;Laerm;57660;51.436;5.978;2023-04-06T01:18:35;31.21;30.06;32.37;;
67304;Laerm;57660;51.436;5.978;2023-04-06T01:18:50;31.32;30.00;33.04;;
67304;Laerm;57660;51.436;5.978;2023-04-06T01:19:04;31.43;30.15;32.83;;
67304;Laerm;57660;51.436;5.978;2023-04-06T01:19:22;42.25;30.43;49.03;;
67304;Laerm;57660;51.436;5.978;2023-04-06T01:19:34;45.45;39.63;51.72;;
67304;Laerm;57660;51.436;5.978;2023-04-06T01:19:57;41.67;39.60;43.40;;
67304;Laerm;57660;51.436;5.978;2023-04-06T01:20:08;42.12;40.05;43.70;;
67304;Laerm;57660;51.436;5.978;2023-04-06T01:20:36;74.32;71.11;79.93;;
67304;Laerm;57660;51.436;5.978;2023-04-06T01:20:46;74.70;67.70;80.14;;
67304;Laerm;57660;51.436;5.978;2023-04-06T01:21:17;53.40;33.14;70.20;;
67304;Laerm;57660;51.436;5.978;2023-04-06T01:21:27;34.37;32.44;35.91;;
67304;Laerm;57660;51.436;5.978;2023-04-06T01:21:40;33.15;31.45;35.53;;
67304;Laerm;57660;51.436;5.978;2023-04-06T01:22:02;32.15;30.55;34.22;;
67304;Laerm;57660;51.436;5.978;2023-04-06T01:22:19;31.47;30.35;32.97;;
67304;Laerm;57660;51.436;5.978;2023-04-06T01:22:29;31.22;30.04;32.61;;
67304;Laerm;57660;51.436;5.978;2023-04-06T01:22:49;31.10;30.09;33.07;;
67304;Laerm;57660;51.436;5.978;2023-04-06T01:22:59;31.07;29.62;32.31;;
67304;Laerm;57660;51.436;5.978;2023-04-06T01:23:19;31.02;29.80;33.06;;
67304;Laerm;57660;51.436;5.978;2023-04-06T01:23:44;31.07;29.96;32.22;;
67304;Laerm;57660;51.436;5.978;2023-04-06T01:23:55;30.98;29.49;32.25;;
67304;Laerm;57660;51.436;5.978;2023-04-06T01:24:06;30.95;29.77;32.12;;
67304;Laerm;57660;51.436;5.978;2023-04-06T01:24:19;31.14;29.89;32.55;;
67304;Laerm;57660;51.436;5.978;2023-04-06T01:24:39;31.19;29.89;37.73;;
67304;Laerm;57660;51.436;5.978;2023-04-06T01:24:54;31.20;30.07;32.42;;
67304;Laerm;57660;51.436;5.978;2023-04-06T01:25:11;31.04;29.86;32.65;;
67304;Laerm;57660;51.436;5.978;2023-04-06T01:25:23;31.09;30.07;32.18;;
67304;Laerm;57660;51.436;5.978;2023-04-06T01:25:39;31.04;30.05;32.34;;
67304;Laerm;57660;51.436;5.978;2023-04-06T01:26:18;31.28;30.06;32.82;;
67304;Laerm;57660;51.436;5.978;2023-04-06T01:26:38;31.87;30.07;33.92;;
67304;Laerm;57660;51.436;5.978;2023-04-06T01:26:57;31.18;30.00;32.45;;
67304;Laerm;57660;51.436;5.978;2023-04-06T01:27:11;32.42;30.45;35.75;;
67304;Laerm;57660;51.436;5.978;2023-04-06T01:27:27;31.95;30.43;34.23;;
67304;Laerm;57660;51.436;5.978;2023-04-06T01:27:40;37.31;31.48;44.37;;
67304;Laerm;57660;51.436;5.978;2023-04-06T01:27:51;35.72;32.36;41.78;;
67304;Laerm;57660;51.436;5.978;2023-04-06T01:28:04;32.99;31.14;36.15;;
67304;Laerm;57660;51.436;5.978;2023-04-06T01:28:15;34.58;31.81;39.94;;
67304;Laerm;57660;51.436;5.978;2023-04-06T01:28:28;41.95;31.36;55.43;;
67304;Laerm;57660;51.436;5.978;2023-04-06T01:28:41;31.68;30.15;33.55;;
67304;Laerm;57660;51.436;5.978;2023-04-06T01:28:54;31.28;29.67;34.47;;
67304;Laerm;57660;51.436;5.978;2023-04-06T01:29:07;31.44;29.86;36.83;;
67304;Laerm;57660;51.436;5.978;2023-04-06T01:29:18;31.19;29.96;36.11;;
67304;Laerm;57660;51.436;5.978;2023-04-06T01:29:37;31.41;29.98;36.79;;
67304;Laerm;57660;51.436;5.978;2023-04-06T01:29:51;31.27;29.80;34.99;;
67304;Laerm;57660;51.436;5.978;2023-04-06T01:30:04;31.09;29.87;32.18;;
67304;Laerm;57660;51.436;5.978;2023-04-06T01:30:14;31.54;29.91;37.77;;
67304;Laerm;57660;51.436;5.978;2023-04-06T01:30:37;32.98;30.10;37.64;;
67304;Laerm;57660;51.436;5.978;2023-04-06T01:30:50;34.37;30.10;44.56;;
67304;Laerm;57660;51.436;5.978;2023-04-06T01:31:06;33.03;30.42;37.22;;
67304;Laerm;57660;51.436;5.978;2023-04-06T01:31:17;42.46;30.15;58.16;;
67304;Laerm;57660;51.436;5.978;2023-04-06T01:31:39;31.17;29.93;32.43;;
67304;Laerm;57660;51.436;5.978;2023-04-06T01:31:50;32.22;30.06;37.81;;
67304;Laerm;57660;51.436;5.978;2023-04-06T01:32:03;30.98;29.72;32.09;;
67304;Laerm;57660;51.436;5.978;2023-04-06T01:32:16;31.07;29.96;32.13;;
67304;Laerm;57660;51.436;5.978;2023-04-06T01:32:32;30.98;29.66;31.99;;
67304;Laerm;57660;51.436;5.978;2023-04-06T01:32:54;31.03;29.73;32.13;;
67304;Laerm;57660;51.436;5.978;2023-04-06T01:33:04;31.06;30.01;32.12;;
67304;Laerm;57660;51.436;5.978;2023-04-06T01:33:23;31.07;30.00;31.99;;
67304;Laerm;57660;51.436;5.978;2023-04-06T01:33:33;31.50;29.58;33.74;;
67304;Laerm;57660;51.436;5.978;2023-04-06T01:33:50;31.59;30.12;32.73;;
67304;Laerm;57660;51.436;5.978;2023-04-06T01:34:03;31.47;30.23;32.80;;
67304;Laerm;57660;51.436;5.978;2023-04-06T01:34:26;31.76;30.19;33.70;;
67304;Laerm;57660;51.436;5.978;2023-04-06T01:34:36;31.64;30.36;33.33;;
67304;Laerm;57660;51.436;5.978;2023-04-06T01:34:49;31.42;30.37;32.44;;
67304;Laerm;57660;51.436;5.978;2023-04-06T01:34:59;31.68;30.46;34.27;;
67304;Laerm;57660;51.436;5.978;2023-04-06T01:35:19;31.37;30.19;32.67;;
67304;Laerm;57660;51.436;5.978;2023-04-06T01:35:29;31.54;29.89;33.06;;
67304;Laerm;57660;51.436;5.978;2023-04-06T01:35:49;33.21;30.71;35.20;;
67304;Laerm;57660;51.436;5.978;2023-04-06T01:35:59;36.97;31.58;44.50;;
67304;Laerm;57660;51.436;5.978;2023-04-06T01:36:16;34.17;30.96;45.51;;
67304;Laerm;57660;51.436;5.978;2023-04-06T01:36:26;32.67;29.92;39.02;;
67304;Laerm;57660;51.436;5.978;2023-04-06T01:36:37;31.29;29.90;35.84;;
67304;Laerm;57660;51.436;5.978;2023-04-06T01:36:47;31.41;29.70;36.54;;
67304;Laerm;57660;51.436;5.978;2023-04-06T01:37:01;31.68;30.00;37.02;;
67304;Laerm;57660;51.436;5.978;2023-04-06T01:37:20;32.06;29.74;38.36;;
67304;Laerm;57660;51.436;5.978;2023-04-06T01:37:39;31.04;29.74;32.40;;
67304;Laerm;57660;51.436;5.978;2023-04-06T01:37:51;31.69;29.91;42.45;;
67304;Laerm;57660;51.436;5.978;2023-04-06T01:38:02;31.08;29.85;34.00;;
67304;Laerm;57660;51.436;5.978;2023-04-06T01:38:14;32.41;29.89;48.67;;